createdAt,value
2023-04-11T00:00:23.957Z,100579.78
2023-04-11T00:02:54.909Z,100583.29
2023-04-11T00:05:25.043Z,100563.90
2023-04-11T00:07:55.655Z,100565.29
2023-04-11T00:10:26.283Z,100576.85
2023-04-11T00:12:56.987Z,100582.93
2023-04-11T00:15:27.543Z,100597.79
2023-04-11T00:17:58.285Z,100597.74
2023-04-11T00:20:28.830Z,100588.05
2023-04-11T00:22:59.488Z,100585.12
2023-04-11T00:25:30.332Z,100578.20
2023-04-11T00:28:00.802Z,100575.55
2023-04-11T00:30:30.923Z,100549.36
2023-04-11T00:33:01.612Z,100533.54
2023-04-11T00:35:32.238Z,100513.86
2023-04-11T00:38:02.835Z,100519.14
2023-04-11T00:40:33.501Z,100528.39
2023-04-11T00:43:04.158Z,100529.64
2023-04-11T00:45:34.826Z,100524.71
2023-04-11T00:48:05.570Z,100528.84
2023-04-11T00:50:36.171Z,100531.60
2023-04-11T00:53:06.768Z,100532.58
2023-04-11T00:55:37.411Z,100532.72
2023-04-11T00:58:08.169Z,100529.13
2023-04-11T01:00:38.773Z,100527.20
2023-04-11T01:03:09.543Z,100524.22
2023-04-11T01:05:40.039Z,100519.14
2023-04-11T01:08:10.702Z,100517.27
2023-04-11T01:10:41.345Z,100511.44
2023-04-11T01:13:12.039Z,100510.00
2023-04-11T01:15:42.656Z,100509.98
2023-04-11T01:18:13.336Z,100513.39
2023-04-11T01:20:44.067Z,100514.47
2023-04-11T01:23:14.652Z,100506.32
2023-04-11T01:25:45.291Z,100511.98
2023-04-11T01:28:15.967Z,100505.93
2023-04-11T01:30:46.764Z,100505.54
2023-04-11T01:33:17.316Z,100499.88
2023-04-11T01:35:47.970Z,100494.90
2023-04-11T01:38:18.628Z,100494.56
2023-04-11T01:40:49.303Z,100492.29
2023-04-11T01:43:19.968Z,100498.02
2023-04-11T01:45:50.636Z,100500.21
2023-04-11T01:48:21.488Z,100498.46
2023-04-11T01:50:51.975Z,100498.84
2023-04-11T01:53:22.692Z,100501.54
2023-04-11T01:55:53.312Z,100497.81
2023-04-11T01:58:24.003Z,100495.27
2023-04-11T02:00:54.678Z,100498.53
2023-04-11T02:03:25.495Z,100496.77
2023-04-11T02:05:56.063Z,100493.26
2023-04-11T02:08:26.697Z,100489.22
2023-04-11T02:10:57.428Z,100489.49
2023-04-11T02:13:28.056Z,100486.80
2023-04-11T02:15:58.777Z,100491.05
2023-04-11T02:18:29.425Z,100490.40
2023-04-11T02:21:00.160Z,100491.32
2023-04-11T02:23:30.795Z,100492.33
2023-04-11T02:26:01.492Z,100489.32
2023-04-11T02:28:32.167Z,100491.37
2023-04-11T02:31:03.004Z,100490.74
2023-04-11T02:33:33.534Z,100488.94
2023-04-11T02:36:04.368Z,100482.14
2023-04-11T02:38:34.877Z,100485.28
2023-04-11T02:41:05.544Z,100488.30
2023-04-11T02:43:36.236Z,100489.36
2023-04-11T02:46:12.663Z,100486.02
2023-04-11T02:48:37.583Z,100486.56
2023-04-11T02:51:07.835Z,100483.63
2023-04-11T02:53:38.633Z,100484.40
2023-04-11T02:56:09.287Z,100486.57
2023-04-11T02:58:39.959Z,100488.76
2023-04-11T03:01:10.605Z,100495.60
2023-04-11T03:03:40.712Z,100499.10
2023-04-11T03:06:11.300Z,100497.12
2023-04-11T03:08:41.705Z,100501.68
2023-04-11T03:11:12.333Z,100500.52
2023-04-11T03:13:42.647Z,100506.45
2023-04-11T03:16:13.359Z,100500.98
2023-04-11T03:18:43.982Z,100501.42
2023-04-11T03:21:14.609Z,100501.57
2023-04-11T03:23:45.275Z,100497.96
2023-04-11T03:26:15.649Z,100506.15
2023-04-11T03:28:46.045Z,100504.23
2023-04-11T03:31:16.717Z,100508.98
2023-04-11T03:33:47.338Z,100511.71
2023-04-11T03:36:17.653Z,100515.66
2023-04-11T03:38:48.001Z,100518.30
2023-04-11T03:41:18.210Z,100513.78
2023-04-11T03:43:49.005Z,100516.97
2023-04-11T03:46:19.334Z,100517.29
2023-04-11T03:48:49.981Z,100515.09
2023-04-11T03:51:20.274Z,100517.06
2023-04-11T03:53:50.925Z,100521.07
2023-04-11T03:56:21.575Z,100523.09
2023-04-11T03:58:52.285Z,100524.31
2023-04-11T04:01:22.810Z,100528.48
2023-04-11T04:03:53.448Z,100526.77
2023-04-11T04:06:23.806Z,100533.80
2023-04-11T04:08:54.465Z,100528.84
2023-04-11T04:11:25.095Z,100526.69
2023-04-11T04:13:56.093Z,100530.66
2023-04-11T04:16:26.012Z,100530.97
2023-04-11T04:18:56.363Z,100532.26
2023-04-11T04:21:26.985Z,100532.70
2023-04-11T04:23:58.042Z,100531.65
2023-04-11T04:26:28.267Z,100535.46
2023-04-11T04:28:58.923Z,100535.70
2023-04-11T04:31:29.591Z,100538.70
2023-04-11T04:34:00.256Z,100539.12
2023-04-11T04:36:30.830Z,100542.48
2023-04-11T04:39:01.482Z,100540.12
2023-04-11T04:41:32.161Z,100541.63
2023-04-11T04:44:02.742Z,100539.46
2023-04-11T04:46:33.366Z,100545.61
2023-04-11T04:49:04.031Z,100546.56
2023-04-11T04:51:34.660Z,100545.22
2023-04-11T04:54:05.320Z,100543.36
2023-04-11T04:56:35.957Z,100552.88
2023-04-11T04:59:06.621Z,100555.66
2023-04-11T05:01:37.314Z,100562.91
2023-04-11T05:04:07.998Z,100561.06
2023-04-11T05:06:38.582Z,100569.64
2023-04-11T05:09:09.211Z,100565.96
2023-04-11T05:11:39.851Z,100566.49
2023-04-11T05:14:10.506Z,100574.23
2023-04-11T05:16:41.221Z,100573.09
2023-04-11T05:19:11.838Z,100572.33
2023-04-11T05:21:42.451Z,100575.55
2023-04-11T05:24:13.122Z,100576.09
2023-04-11T05:26:43.854Z,100579.77
2023-04-11T05:29:14.424Z,100579.23
2023-04-11T05:31:45.081Z,100586.75
2023-04-11T05:34:15.726Z,100591.14
2023-04-11T05:36:46.373Z,100592.17
2023-04-11T05:39:16.998Z,100596.19
2023-04-11T05:41:47.731Z,100596.25
2023-04-11T05:44:18.290Z,100600.91
2023-04-11T05:46:48.917Z,100604.76
2023-04-11T05:49:19.594Z,100605.66
2023-04-11T05:51:50.271Z,100615.24
2023-04-11T05:54:20.887Z,100618.63
2023-04-11T05:56:51.627Z,100626.32
2023-04-11T05:59:26.415Z,100626.53
2023-04-11T06:01:52.899Z,100629.80
2023-04-11T06:04:23.797Z,100641.68
2023-04-11T06:06:54.178Z,100639.51
2023-04-11T06:09:24.843Z,100640.93
2023-04-11T06:11:55.485Z,100646.26
2023-04-11T06:14:26.154Z,100646.06
2023-04-11T06:16:56.817Z,100648.27
2023-04-11T06:19:27.487Z,100637.55
2023-04-11T06:21:58.106Z,100649.18
2023-04-11T06:24:28.777Z,100654.16
2023-04-11T06:26:59.513Z,100654.93
2023-04-11T06:29:30.081Z,100660.08
2023-04-11T06:32:00.492Z,100670.07
2023-04-11T06:34:31.091Z,100667.89
2023-04-11T06:37:01.743Z,100670.50
2023-04-11T06:39:32.388Z,100675.68
2023-04-11T06:42:03.017Z,100673.08
2023-04-11T06:44:33.773Z,100677.24
2023-04-11T06:47:04.402Z,100680.16
2023-04-11T06:49:35.017Z,100696.61
2023-04-11T06:52:05.652Z,100700.62
2023-04-11T06:54:36.337Z,100701.05
2023-04-11T06:57:06.998Z,100700.72
2023-04-11T06:59:37.310Z,100705.70
2023-04-11T07:02:08.062Z,100704.49
2023-04-11T07:04:38.748Z,100701.63
2023-04-11T07:07:09.292Z,100716.24
2023-04-11T07:09:39.975Z,100724.72
2023-04-11T07:12:10.624Z,100728.83
2023-04-11T07:14:41.300Z,100732.53
2023-04-11T07:17:12.005Z,100730.14
2023-04-11T07:19:42.363Z,100719.52
2023-04-11T07:22:13.018Z,100734.19
2023-04-11T07:24:43.700Z,100738.95
2023-04-11T07:27:14.491Z,100743.28
2023-04-11T07:29:45.023Z,100740.52
2023-04-11T07:32:15.746Z,100748.19
2023-04-11T07:34:46.364Z,100747.05
2023-04-11T07:37:17.035Z,100745.82
2023-04-11T07:39:47.695Z,100750.20
2023-04-11T07:42:18.375Z,100757.88
2023-04-11T07:44:49.010Z,100766.68
2023-04-11T07:47:19.692Z,100768.81
2023-04-11T07:49:50.325Z,100770.70
2023-04-11T07:52:20.993Z,100771.93
2023-04-11T07:54:51.644Z,100779.56
2023-04-11T07:57:22.316Z,100779.69
2023-04-11T07:59:52.983Z,100789.25
2023-04-11T08:04:54.375Z,100791.97
2023-04-11T08:07:24.782Z,100787.96
2023-04-11T08:09:55.388Z,100797.08
2023-04-11T08:12:26.152Z,100792.86
2023-04-11T08:14:56.807Z,100797.20
2023-04-11T08:17:28.937Z,100795.67
2023-04-11T08:19:58.135Z,100798.11
2023-04-11T08:22:28.807Z,100799.20
2023-04-11T08:24:59.473Z,100791.45
2023-04-11T08:27:30.143Z,100790.46
2023-04-11T08:30:00.818Z,100799.24
2023-04-11T08:32:31.499Z,100798.34
2023-04-11T08:35:01.842Z,100798.42
2023-04-11T08:37:32.477Z,100802.29
2023-04-11T08:40:03.109Z,100810.37
2023-04-11T08:42:33.757Z,100821.64
2023-04-11T08:45:04.428Z,100815.22
2023-04-11T08:47:35.099Z,100822.29
2023-04-11T08:50:05.753Z,100822.17
2023-04-11T08:52:36.375Z,100820.65
2023-04-11T08:55:07.057Z,100824.61
2023-04-11T08:57:37.668Z,100821.22
2023-04-11T09:00:08.330Z,100822.91
2023-04-11T09:02:39.007Z,100826.79
2023-04-11T09:05:09.765Z,100830.91
2023-04-11T09:07:40.208Z,100836.28
2023-04-11T09:10:10.844Z,100827.55
2023-04-11T09:12:41.516Z,100824.37
2023-04-11T09:15:12.103Z,100835.40
2023-04-11T09:17:42.739Z,100823.40
2023-04-11T09:20:13.340Z,100829.23
2023-04-11T09:22:43.935Z,100824.57
2023-04-11T09:25:14.538Z,100814.12
2023-04-11T09:27:45.130Z,100825.06
2023-04-11T09:30:15.737Z,100822.73
2023-04-11T09:32:46.337Z,100822.34
2023-04-11T09:35:16.656Z,100828.80
2023-04-11T09:37:47.211Z,100833.01
2023-04-11T09:40:17.808Z,100822.41
2023-04-11T09:42:48.388Z,100821.47
2023-04-11T09:45:18.977Z,100827.10
2023-04-11T09:47:49.543Z,100835.88
2023-04-11T09:50:20.288Z,100833.57
2023-04-11T09:52:50.729Z,100832.99
2023-04-11T09:55:21.375Z,100834.95
2023-04-11T09:57:51.834Z,100833.15
2023-04-11T10:00:22.466Z,100847.37
2023-04-11T10:02:53.337Z,100850.56
2023-04-11T10:05:23.509Z,100850.98
2023-04-11T10:07:54.061Z,100861.32
2023-04-11T10:10:24.628Z,100883.52
2023-04-11T10:12:55.265Z,100868.93
2023-04-11T10:15:25.779Z,100872.20
2023-04-11T10:17:56.353Z,100874.45
2023-04-11T10:20:26.945Z,100872.24
2023-04-11T10:22:57.538Z,100861.89
2023-04-11T10:25:28.136Z,100865.00
2023-04-11T10:27:58.715Z,100865.66
2023-04-11T10:30:29.340Z,100864.98
2023-04-11T10:32:59.976Z,100863.38
2023-04-11T10:35:30.639Z,100857.48
2023-04-11T10:38:01.124Z,100874.26
2023-04-11T10:40:31.739Z,100858.86
2023-04-11T10:43:02.325Z,100865.70
2023-04-11T10:45:32.925Z,100858.20
2023-04-11T10:48:03.671Z,100866.88
2023-04-11T10:50:34.129Z,100872.65
2023-04-11T10:53:04.694Z,100871.90
2023-04-11T10:55:35.292Z,100880.47
2023-04-11T10:58:05.915Z,100885.38
2023-04-11T11:00:36.502Z,100894.82
2023-04-11T11:03:07.200Z,100882.22
2023-04-11T11:05:38.098Z,100876.94
2023-04-11T11:08:08.346Z,100868.61
2023-04-11T11:10:38.846Z,100868.69
2023-04-11T11:13:09.508Z,100866.11
2023-04-11T11:15:39.969Z,100873.26
2023-04-11T11:18:10.572Z,100876.62
2023-04-11T11:20:41.101Z,100873.12
2023-04-11T11:23:11.632Z,100875.88
2023-04-11T11:25:42.131Z,100878.15
2023-04-11T11:28:12.644Z,100870.44
2023-04-11T11:30:43.200Z,100880.83
2023-04-11T11:33:13.681Z,100888.13
2023-04-11T11:35:44.210Z,100889.41
2023-04-11T11:38:14.727Z,100889.74
2023-04-11T11:40:45.256Z,100892.70
2023-04-11T11:43:15.758Z,100907.07
2023-04-11T11:45:46.345Z,100905.03
2023-04-11T11:48:16.793Z,100902.81
2023-04-11T11:50:47.345Z,100909.44
2023-04-11T11:53:17.865Z,100917.11
2023-04-11T11:55:48.374Z,100907.58
2023-04-11T11:58:18.884Z,100924.18
2023-04-11T12:00:49.433Z,100934.92
2023-04-11T12:03:20.080Z,100933.68
2023-04-11T12:05:50.488Z,100938.58
2023-04-11T12:08:21.022Z,100936.40
2023-04-11T12:10:51.598Z,100943.90
2023-04-11T12:13:21.894Z,100929.80
2023-04-11T12:15:52.433Z,100939.42
2023-04-11T12:18:22.932Z,100943.64
2023-04-11T12:20:53.508Z,100949.93
2023-04-11T12:23:24.016Z,100943.48
2023-04-11T12:25:54.568Z,100945.55
2023-04-11T12:28:25.106Z,100961.72
2023-04-11T12:30:55.656Z,100955.35
2023-04-11T12:33:26.255Z,100962.36
2023-04-11T12:35:56.756Z,100956.21
2023-04-11T12:38:27.278Z,100961.51
2023-04-11T12:41:13.957Z,100957.84
2023-04-11T12:43:28.341Z,100969.86
2023-04-11T12:45:58.919Z,100964.30
2023-04-11T12:48:29.420Z,100967.68
2023-04-11T12:50:59.970Z,100966.80
2023-04-11T12:53:30.477Z,100968.01
2023-04-11T12:56:01.047Z,100974.54
2023-04-11T12:58:31.534Z,100980.18
2023-04-11T13:01:02.060Z,100983.17
2023-04-11T13:03:32.868Z,100984.56
2023-04-11T13:06:03.124Z,100983.95
2023-04-11T13:08:33.597Z,100970.64
2023-04-11T13:11:04.163Z,100988.82
2023-04-11T13:13:34.659Z,100986.59
2023-04-11T13:16:05.255Z,100983.81
2023-04-11T13:18:35.733Z,100996.67
2023-04-11T13:21:06.286Z,101003.18
2023-04-11T13:23:36.862Z,100996.67
2023-04-11T13:26:07.347Z,101002.08
2023-04-11T13:28:37.896Z,100996.73
2023-04-11T13:31:08.396Z,100998.14
2023-04-11T13:33:38.900Z,101002.01
2023-04-11T13:36:09.441Z,100995.16
2023-04-11T13:38:40.018Z,101000.97
2023-04-11T13:41:10.472Z,101006.89
2023-04-11T13:43:40.972Z,101008.93
2023-04-11T13:46:11.532Z,101013.85
2023-04-11T13:48:41.947Z,101019.04
2023-04-11T13:51:12.487Z,101020.35
2023-04-11T13:53:42.942Z,101017.83
2023-04-11T13:56:13.445Z,101034.65
2023-04-11T13:58:43.941Z,101037.26
2023-04-11T14:01:14.510Z,101021.71
2023-04-11T14:03:45.038Z,101030.33
2023-04-11T14:06:15.560Z,101025.41
2023-04-11T14:08:45.937Z,101032.96
2023-04-11T14:11:16.449Z,101020.97
2023-04-11T14:13:46.928Z,101032.85
2023-04-11T14:16:17.464Z,101032.99
2023-04-11T14:18:47.943Z,101043.98
2023-04-11T14:21:18.480Z,101029.57
2023-04-11T14:23:48.950Z,101040.89
2023-04-11T14:26:19.459Z,101034.13
2023-04-11T14:28:49.943Z,101032.45
2023-04-11T14:31:20.674Z,101035.86
2023-04-11T14:33:50.957Z,101036.82
2023-04-11T14:36:21.551Z,101033.06
2023-04-11T14:38:51.988Z,101033.20
2023-04-11T14:41:22.561Z,101035.88
2023-04-11T14:43:53.013Z,101035.39
2023-04-11T14:46:23.544Z,101032.54
2023-04-11T14:48:54.016Z,101039.22
2023-04-11T14:51:24.549Z,101043.58
2023-04-11T14:53:55.457Z,101034.48
2023-04-11T14:56:25.514Z,101035.22
2023-04-11T14:58:56.035Z,101029.45
2023-04-11T15:01:26.560Z,101029.90
2023-04-11T15:03:57.552Z,101038.00
2023-04-11T15:06:27.491Z,101031.94
2023-04-11T15:08:57.992Z,101033.80
2023-04-11T15:11:28.472Z,101034.40
2023-04-11T15:13:58.952Z,101030.65
2023-04-11T15:16:29.513Z,101036.22
2023-04-11T15:18:59.926Z,101030.21
2023-04-11T15:21:30.468Z,101028.28
2023-04-11T15:24:00.929Z,101029.79
2023-04-11T15:26:31.424Z,101030.30
2023-04-11T15:29:01.921Z,101032.49
2023-04-11T15:31:32.497Z,101029.20
2023-04-11T15:34:02.913Z,101025.44
2023-04-11T15:36:33.467Z,101023.40
2023-04-11T15:39:03.932Z,101022.67
2023-04-11T15:41:34.448Z,101022.80
2023-04-11T15:44:04.948Z,101026.43
2023-04-11T15:46:35.501Z,101025.32
2023-04-11T15:49:05.947Z,101018.73
2023-04-11T15:51:36.472Z,101024.40
2023-04-11T15:54:07.077Z,101023.58
2023-04-11T15:56:37.468Z,101025.26
2023-04-11T15:59:07.954Z,101019.02
2023-04-11T16:01:38.650Z,101019.34
2023-04-11T16:04:09.016Z,101018.58
2023-04-11T16:06:39.466Z,101026.80
2023-04-11T16:09:09.947Z,101021.63
2023-04-11T16:11:40.560Z,101015.66
2023-04-11T16:14:10.971Z,101013.31
2023-04-11T16:16:41.199Z,101011.26
2023-04-11T16:19:11.643Z,101010.53
2023-04-11T16:21:42.172Z,101003.63
2023-04-11T16:24:12.397Z,101001.21
2023-04-11T16:26:42.921Z,101006.45
2023-04-11T16:29:13.416Z,101003.68
2023-04-11T16:31:43.950Z,101000.56
2023-04-11T16:34:14.458Z,100996.08
2023-04-11T16:36:44.948Z,101001.75
2023-04-11T16:39:15.448Z,100995.66
2023-04-11T16:41:45.963Z,101002.93
2023-04-11T16:44:16.465Z,100998.83
2023-04-11T16:46:47.023Z,100995.19
2023-04-11T16:49:17.506Z,100991.52
2023-04-11T16:51:48.043Z,100991.48
2023-04-11T16:54:18.560Z,100987.20
2023-04-11T16:56:49.078Z,100985.33
2023-04-11T16:59:19.714Z,100981.10
2023-04-11T17:01:50.201Z,100977.09
2023-04-11T17:04:20.771Z,100979.52
2023-04-11T17:06:51.194Z,100983.18
2023-04-11T17:09:21.654Z,100985.74
2023-04-11T17:11:52.179Z,100983.76
2023-04-11T17:14:22.409Z,100982.11
2023-04-11T17:16:52.987Z,100979.58
2023-04-11T17:19:24.480Z,100979.88
2023-04-11T17:21:54.069Z,100977.09
2023-04-11T17:24:24.499Z,100977.52
2023-04-11T17:26:55.040Z,100974.84
2023-04-11T17:29:25.668Z,100978.91
2023-04-11T17:31:56.204Z,100973.23
2023-04-11T17:34:26.622Z,100974.02
2023-04-11T17:36:57.175Z,100971.68
2023-04-11T17:39:27.686Z,100969.11
2023-04-11T17:41:58.256Z,100970.58
2023-04-11T17:44:28.759Z,100975.47
2023-04-11T17:46:59.296Z,100973.43
2023-04-11T17:49:29.819Z,100970.36
2023-04-11T17:52:00.373Z,100966.43
2023-04-11T17:54:30.875Z,100966.52
2023-04-11T17:57:01.412Z,100967.02
2023-04-11T17:59:31.934Z,100967.62
2023-04-11T18:02:02.585Z,100965.81
2023-04-11T18:04:33.186Z,100964.41
2023-04-11T18:07:03.595Z,100962.95
2023-04-11T18:09:34.037Z,100963.49
2023-04-11T18:12:04.569Z,100965.64
2023-04-11T18:14:35.073Z,100962.15
2023-04-11T18:17:05.613Z,100959.53
2023-04-11T18:19:36.155Z,100961.05
2023-04-11T18:22:06.681Z,100962.04
2023-04-11T18:24:37.210Z,100963.63
2023-04-11T18:27:07.699Z,100965.99
2023-04-11T18:29:38.214Z,100968.95
2023-04-11T18:32:08.726Z,100972.56
2023-04-11T18:34:39.258Z,100973.71
2023-04-11T18:37:09.799Z,100976.96
2023-04-11T18:39:40.376Z,100975.44
2023-04-11T18:42:10.919Z,100973.85
2023-04-11T18:44:41.552Z,100967.97
2023-04-11T18:47:12.383Z,100970.39
2023-04-11T18:49:42.521Z,100968.85
2023-04-11T18:52:13.929Z,100965.61
2023-04-11T18:54:43.361Z,100963.23
2023-04-11T18:57:14.834Z,100961.16
2023-04-11T18:59:44.720Z,100957.13
2023-04-11T19:02:15.027Z,100955.57
2023-04-11T19:04:46.085Z,100953.64
2023-04-11T19:07:16.087Z,100953.29
2023-04-11T19:09:46.745Z,100951.94
2023-04-11T19:12:17.225Z,100951.48
2023-04-11T19:14:47.781Z,100950.28
2023-04-11T19:17:18.384Z,100944.99
2023-04-11T19:19:48.950Z,100938.37
2023-04-11T19:22:19.558Z,100932.50
2023-04-11T19:24:50.137Z,100929.98
2023-04-11T19:27:20.728Z,100927.90
2023-04-11T19:29:51.312Z,100927.83
2023-04-11T19:32:22.000Z,100925.74
2023-04-11T19:34:52.506Z,100923.97
2023-04-11T19:37:23.125Z,100916.87
2023-04-11T19:39:53.709Z,100908.90
2023-04-11T19:42:24.321Z,100909.89
2023-04-11T19:44:54.921Z,100913.49
2023-04-11T19:47:25.557Z,100911.09
2023-04-11T19:49:56.133Z,100900.01
2023-04-11T19:52:26.773Z,100896.81
2023-04-11T19:54:57.382Z,100898.84
2023-04-11T19:57:27.746Z,100895.29
2023-04-11T19:59:58.309Z,100893.60
2023-04-11T20:02:29.055Z,100893.86
2023-04-11T20:04:59.574Z,100892.12
2023-04-11T20:07:30.259Z,100893.20
2023-04-11T20:10:00.844Z,100891.70
2023-04-11T20:12:31.465Z,100891.92
2023-04-11T20:15:02.096Z,100890.50
2023-04-11T20:17:32.795Z,100885.12
2023-04-11T20:20:03.417Z,100882.67
2023-04-11T20:22:34.030Z,100877.92
2023-04-11T20:25:04.667Z,100875.42
2023-04-11T20:27:35.368Z,100871.72
2023-04-11T20:30:05.947Z,100866.90
2023-04-11T20:32:36.615Z,100859.10
2023-04-11T20:35:07.353Z,100855.99
2023-04-11T20:37:37.838Z,100850.27
2023-04-11T20:40:08.474Z,100847.97
2023-04-11T20:42:39.119Z,100845.74
2023-04-11T20:45:09.757Z,100847.99
2023-04-11T20:47:40.240Z,100841.09
2023-04-11T20:50:10.825Z,100837.76
2023-04-11T20:52:41.417Z,100832.14
2023-04-11T20:55:11.703Z,100824.67
2023-04-11T20:57:42.356Z,100822.89
2023-04-11T21:00:12.982Z,100821.75
2023-04-11T21:02:43.783Z,100812.83
2023-04-11T21:05:14.381Z,100813.37
2023-04-11T21:07:44.905Z,100805.15
2023-04-11T21:10:15.691Z,100797.15
2023-04-11T21:12:47.746Z,100795.10
2023-04-11T21:15:16.834Z,100790.26
2023-04-11T21:17:47.581Z,100784.26
2023-04-11T21:20:18.507Z,100776.70
2023-04-11T21:22:48.757Z,100772.07
2023-04-11T21:25:19.438Z,100766.86
2023-04-11T21:27:50.067Z,100764.86
2023-04-11T21:30:20.731Z,100762.32
2023-04-11T21:32:51.398Z,100760.80
2023-04-11T21:35:21.987Z,100758.65
2023-04-11T21:37:52.679Z,100758.19
2023-04-11T21:40:23.282Z,100757.89
2023-04-11T21:42:53.942Z,100752.57
2023-04-11T21:45:24.608Z,100748.30
2023-04-11T21:47:55.252Z,100745.88
2023-04-11T21:50:25.862Z,100745.99
2023-04-11T21:52:56.515Z,100744.33
2023-04-11T21:55:27.170Z,100747.34
2023-04-11T21:57:57.809Z,100744.78
2023-04-11T22:00:28.453Z,100739.41
2023-04-11T22:02:59.347Z,100735.07
2023-04-11T22:05:29.854Z,100725.05
2023-04-11T22:08:00.431Z,100722.11
2023-04-11T22:10:41.196Z,100723.57
2023-04-11T22:13:01.736Z,100715.83
2023-04-11T22:15:32.291Z,100714.69
2023-04-11T22:18:03.036Z,100706.57
2023-04-11T22:20:33.572Z,100700.91
2023-04-11T22:23:04.230Z,100693.66
2023-04-11T22:25:34.860Z,100686.67
2023-04-11T22:28:05.515Z,100679.45
2023-04-11T22:30:36.150Z,100681.35
2023-04-11T22:33:06.908Z,100682.44
2023-04-11T22:35:37.512Z,100677.32
2023-04-11T22:38:08.144Z,100680.51
2023-04-11T22:40:38.745Z,100676.21
2023-04-11T22:43:09.392Z,100675.08
2023-04-11T22:45:40.174Z,100671.92
2023-04-11T22:48:10.744Z,100664.08
2023-04-11T22:50:41.347Z,100661.00
2023-04-11T22:53:12.013Z,100655.36
2023-04-11T22:55:42.676Z,100650.17
2023-04-11T22:58:13.309Z,100642.93
2023-04-11T23:00:43.969Z,100636.90
2023-04-11T23:03:14.618Z,100622.93
2023-04-11T23:05:45.304Z,100608.25
2023-04-11T23:08:15.928Z,100596.80
2023-04-11T23:10:46.689Z,100588.70
2023-04-11T23:13:17.230Z,100584.06
2023-04-11T23:15:47.921Z,100586.16
2023-04-11T23:18:18.525Z,100585.10
2023-04-11T23:20:49.210Z,100580.64
2023-04-11T23:23:19.860Z,100578.96
2023-04-11T23:25:50.177Z,100573.79
2023-04-11T23:28:20.880Z,100559.53
2023-04-11T23:30:51.494Z,100546.58
2023-04-11T23:33:22.136Z,100537.91
2023-04-11T23:35:52.832Z,100530.18
2023-04-11T23:38:23.448Z,100526.47
2023-04-11T23:40:54.076Z,100522.28
2023-04-11T23:43:24.739Z,100516.32
2023-04-11T23:45:55.151Z,100514.25
2023-04-11T23:48:25.731Z,100509.69
2023-04-11T23:50:56.464Z,100505.73
2023-04-11T23:53:27.029Z,100504.83
2023-04-11T23:55:57.752Z,100499.56
2023-04-11T23:58:28.325Z,100494.54
